Time;durP1;ratioP1;P1;durP2;ratioP2;P2;SDS_P1;SDS_P2;PMS_P1;PMS_P2;Temp;Humidity;BMP_temperature;BMP_pressure;BME280_temperature;BME280_humidity;BME280_pressure;Samples;Min_cycle;Max_cycle;Signal;HPM_P1;HPM_P2
2022/02/27 00:00:39;;;;;;;12.05;8.27;;;;;;;3.80;59.75;97169.94;5096041;28;20031;-66
2022/02/27 00:03:05;;;;;;;16.95;9.27;;;;;;;3.75;59.77;97162.16;5095995;28;20024;-66
2022/02/27 00:05:31;;;;;;;14.65;8.75;;;;;;;3.75;60.00;97163.88;5096073;28;20024;-66
2022/02/27 00:07:56;;;;;;;20.10;9.15;;;;;;;3.79;60.27;97163.00;5096135;28;20020;-66
2022/02/27 00:10:22;;;;;;;14.02;8.27;;;;;;;3.76;60.25;97161.28;5096113;28;20016;-66
2022/02/27 00:12:49;;;;;;;15.98;8.48;;;;;;;3.74;60.37;97157.00;5095861;28;20384;-67
2022/02/27 00:15:16;;;;;;;16.85;8.40;;;;;;;3.72;60.85;97157.00;5095891;28;20023;-65
2022/02/27 00:17:42;;;;;;;15.50;8.30;;;;;;;3.75;60.84;97146.63;5095645;28;20051;-66
2022/02/27 00:20:09;;;;;;;19.45;9.80;;;;;;;3.61;61.99;97145.78;5095524;28;20177;-66
2022/02/27 00:22:36;;;;;;;16.63;9.10;;;;;;;3.66;62.01;97144.06;5095881;28;20157;-66
2022/02/27 00:25:02;;;;;;;14.20;9.10;;;;;;;3.67;61.83;97140.59;5095785;28;20052;-66
2022/02/27 00:27:28;;;;;;;16.88;9.60;;;;;;;3.68;61.79;97139.75;5095646;28;20430;-67
2022/02/27 00:29:53;;;;;;;15.77;9.30;;;;;;;3.66;62.09;97138.88;5095497;28;20145;-67
2022/02/27 00:32:19;;;;;;;15.40;8.65;;;;;;;3.65;62.90;97135.41;5095557;28;20077;-64
2022/02/27 00:34:44;;;;;;;16.00;9.35;;;;;;;3.63;62.85;97131.97;5095438;28;20102;-66
2022/02/27 00:37:10;;;;;;;18.45;9.82;;;;;;;3.63;63.47;97144.91;5095317;28;20120;-66
2022/02/27 00:39:36;;;;;;;17.17;10.07;;;;;;;3.70;63.54;97140.59;5095331;28;20020;-67
2022/02/27 00:42:01;;;;;;;19.80;10.38;;;;;;;3.70;63.87;97138.00;5095118;28;20028;-67
2022/02/27 00:44:27;;;;;;;16.02;9.70;;;;;;;3.69;63.81;97132.81;5095286;28;20031;-67
2022/02/27 00:46:53;;;;;;;15.75;9.20;;;;;;;3.70;64.63;97121.63;5095240;28;20454;-65
2022/02/27 00:49:18;;;;;;;15.00;10.60;;;;;;;3.75;64.16;97112.13;5095104;28;20028;-67
2022/02/27 00:51:44;;;;;;;20.30;10.70;;;;;;;3.76;64.40;97109.53;5095089;28;20044;-67
2022/02/27 00:54:10;;;;;;;15.45;10.70;;;;;;;3.75;64.63;97106.94;5095051;28;20027;-66
2022/02/27 00:56:35;;;;;;;19.50;11.52;;;;;;;3.76;64.92;97109.53;5094197;28;20066;-66
2022/02/27 00:59:02;;;;;;;18.55;11.25;;;;;;;3.75;64.95;97109.53;5095156;28;20024;-67
2022/02/27 01:01:28;;;;;;;16.90;10.10;;;;;;;3.82;65.09;97116.41;5094910;28;20028;-66
2022/02/27 01:03:53;;;;;;;18.10;10.88;;;;;;;3.84;64.85;97111.25;5095175;28;20012;-66
2022/02/27 01:06:19;;;;;;;19.45;10.77;;;;;;;3.83;64.86;97102.63;5094934;28;20031;-66
2022/02/27 01:08:45;;;;;;;17.38;11.23;;;;;;;3.89;64.83;97112.94;5094914;28;20053;-66
2022/02/27 01:11:11;;;;;;;16.73;10.50;;;;;;;3.92;64.84;97115.53;5094882;28;20110;-66
2022/02/27 01:13:37;;;;;;;18.25;11.10;;;;;;;3.91;64.81;97106.06;5094857;28;20028;-67
2022/02/27 01:16:04;;;;;;;17.02;11.13;;;;;;;3.88;64.82;97108.66;5094624;28;20031;-66
2022/02/27 01:18:30;;;;;;;19.25;10.98;;;;;;;3.91;65.00;97110.34;5094523;28;20039;-66
2022/02/27 01:20:56;;;;;;;17.15;10.73;;;;;;;3.97;64.59;97107.75;5094479;28;20044;-66
2022/02/27 01:23:22;;;;;;;18.33;11.25;;;;;;;3.96;64.75;97094.81;5094584;28;20529;-66
2022/02/27 01:25:47;;;;;;;21.92;11.50;;;;;;;4.01;64.46;97095.69;5094550;28;20477;-66
2022/02/27 01:28:13;;;;;;;18.42;11.13;;;;;;;4.00;64.71;97081.84;5094426;28;20043;-66
2022/02/27 01:30:38;;;;;;;18.38;10.85;;;;;;;3.97;64.71;97079.28;5094459;28;20016;-66
2022/02/27 01:33:04;;;;;;;17.17;11.35;;;;;;;4.01;64.30;97080.16;5094483;28;20111;-66
2022/02/27 01:35:29;;;;;;;13.27;9.07;;;;;;;4.02;64.54;97080.16;5094531;28;20059;-65
2022/02/27 01:37:55;;;;;;;19.15;10.93;;;;;;;4.04;64.20;97072.38;5094341;28;20452;-67
2022/02/27 01:40:21;;;;;;;18.17;12.27;;;;;;;3.96;64.52;97071.50;5094363;28;20417;-67
2022/02/27 01:42:46;;;;;;;18.85;10.90;;;;;;;3.94;64.41;97071.53;5094141;28;20048;-66
2022/02/27 01:45:12;;;;;;;21.88;11.10;;;;;;;3.95;64.48;97070.69;5094244;28;20016;-67
2022/02/27 01:47:37;;;;;;;17.45;11.00;;;;;;;3.90;64.77;97069.81;5094212;28;20036;-66
2022/02/27 01:50:04;;;;;;;17.70;11.30;;;;;;;3.97;64.66;97070.66;5094060;28;20024;-67
2022/02/27 01:52:30;;;;;;;20.23;11.70;;;;;;;3.93;64.70;97064.63;5093995;28;20023;-65
2022/02/27 01:54:57;;;;;;;17.00;11.13;;;;;;;3.91;64.88;97059.44;5094291;28;20030;-66
2022/02/27 01:57:23;;;;;;;19.88;11.38;;;;;;;3.97;64.77;97053.38;5093880;28;20020;-66
2022/02/27 01:59:49;;;;;;;16.52;11.25;;;;;;;3.91;64.76;97050.81;5094006;28;20074;-66
2022/02/27 02:02:15;;;;;;;19.50;12.80;;;;;;;3.92;64.99;97052.56;5093860;28;20047;-66
2022/02/27 02:04:41;;;;;;;18.25;11.88;;;;;;;3.95;64.77;97067.22;5093864;28;20477;-66
2022/02/27 02:07:07;;;;;;;20.98;11.52;;;;;;;3.97;64.61;97073.25;5093654;28;20020;-66
2022/02/27 02:09:34;;;;;;;18.35;11.23;;;;;;;4.05;64.84;97087.03;5093818;28;20024;-67
2022/02/27 02:12:00;;;;;;;20.25;11.82;;;;;;;4.04;64.34;97093.09;5093801;28;20024;-66
2022/02/27 02:14:26;;;;;;;17.88;11.65;;;;;;;4.05;64.47;97094.78;5093690;28;20082;-66
2022/02/27 02:16:53;;;;;;;24.00;12.07;;;;;;;4.10;64.45;97090.47;5093682;28;20546;-66
2022/02/27 02:19:22;;;;;;;21.10;11.95;;;;;;;4.21;64.15;97077.47;5093430;28;20101;-66
2022/02/27 02:21:54;;;;;;;17.95;10.00;;;;;;;4.23;63.81;97074.88;5093389;28;20070;-67
2022/02/27 02:24:21;;;;;;;16.38;12.02;;;;;;;4.23;63.71;97067.97;5093748;28;20035;-66
2022/02/27 02:26:47;;;;;;;20.02;12.27;;;;;;;4.23;63.85;97056.75;5093503;28;20105;-67
2022/02/27 02:29:16;;;;;;;22.00;11.45;;;;;;;4.26;63.88;97067.97;5093495;28;20466;-67
2022/02/27 02:31:43;;;;;;;19.00;12.63;;;;;;;4.20;64.02;97068.00;5093376;28;20032;-67
2022/02/27 02:34:11;;;;;;;20.13;11.75;;;;;;;4.15;64.03;97075.78;5093283;28;20027;-65
2022/02/27 02:36:37;;;;;;;20.73;12.38;;;;;;;4.15;64.18;97095.63;5093297;28;20017;-67
2022/02/27 02:39:06;;;;;;;22.25;12.63;;;;;;;4.19;64.46;97073.16;5093343;28;20477;-67
2022/02/27 02:41:31;;;;;;;16.27;12.55;;;;;;;4.24;63.91;97068.84;5093523;28;20036;-67
2022/02/27 02:43:57;;;;;;;22.27;12.77;;;;;;;4.20;64.25;97057.63;5093296;28;20020;-66
2022/02/27 02:46:23;;;;;;;18.33;12.05;;;;;;;4.14;64.48;97053.34;5093236;28;20056;-66
2022/02/27 02:48:48;;;;;;;21.92;12.93;;;;;;;4.18;64.55;97056.75;5093160;28;20470;-67
2022/02/27 02:51:14;;;;;;;20.35;12.90;;;;;;;4.25;64.42;97075.75;5093222;28;20020;-67
2022/02/27 02:53:40;;;;;;;18.95;12.35;;;;;;;4.24;64.56;97079.22;5093340;28;20481;-67
2022/02/27 02:56:07;;;;;;;22.30;13.15;;;;;;;4.21;64.54;97069.69;5093224;28;20420;-67
2022/02/27 02:58:35;;;;;;;23.00;13.98;;;;;;;4.22;64.38;97074.03;5093138;28;20027;-66
2022/02/27 03:01:01;;;;;;;23.05;13.23;;;;;;;4.24;64.72;97071.44;5093046;28;20058;-66
2022/02/27 03:03:27;;;;;;;23.30;13.15;;;;;;;4.23;64.59;97067.09;5093133;28;20060;-67
2022/02/27 03:05:52;;;;;;;21.27;13.65;;;;;;;4.24;64.59;97058.50;5093084;28;20104;-66
2022/02/27 03:08:18;;;;;;;21.95;13.35;;;;;;;4.19;64.60;97060.22;5092916;28;20386;-66
2022/02/27 03:10:43;;;;;;;21.92;12.60;;;;;;;4.20;64.53;97062.81;5092966;28;20032;-66
2022/02/27 03:13:09;;;;;;;23.48;13.35;;;;;;;4.16;65.11;97055.94;5093053;28;20021;-67
2022/02/27 03:15:35;;;;;;;20.05;13.10;;;;;;;4.16;64.74;97055.94;5092905;28;20027;-66
2022/02/27 03:18:00;;;;;;;20.55;14.23;;;;;;;4.11;65.04;97045.59;5092689;28;20032;-66
2022/02/27 03:20:26;;;;;;;22.20;14.38;;;;;;;4.07;65.46;97055.94;5094949;28;20071;-67
2022/02/27 03:22:51;;;;;;;22.40;14.30;;;;;;;4.07;65.19;97049.06;5096950;28;20012;-66
2022/02/27 03:25:17;;;;;;;23.58;13.73;;;;;;;4.10;65.24;97050.75;5096864;28;20031;-66
2022/02/27 03:27:42;;;;;;;18.80;13.23;;;;;;;4.10;65.35;97055.94;5096889;28;20103;-66
2022/02/27 03:30:09;;;;;;;20.17;13.35;;;;;;;4.16;65.16;97067.13;5096776;28;20023;-67
2022/02/27 03:32:34;;;;;;;19.92;13.02;;;;;;;4.17;65.13;97074.06;5096873;28;20027;-66
2022/02/27 03:35:00;;;;;;;22.48;13.45;;;;;;;4.15;64.97;97085.25;5096812;28;20643;-66
2022/02/27 03:37:26;;;;;;;26.13;14.13;;;;;;;4.17;64.82;97073.19;5096631;28;20047;-66
2022/02/27 03:39:51;;;;;;;21.33;13.93;;;;;;;4.15;65.27;97074.91;5096542;28;20031;-67
2022/02/27 03:42:17;;;;;;;21.88;14.00;;;;;;;4.15;65.09;97072.31;5096454;28;20209;-66
2022/02/27 03:44:43;;;;;;;19.67;13.00;;;;;;;4.10;65.45;97077.53;5096571;28;20016;-67
2022/02/27 03:47:09;;;;;;;25.15;14.38;;;;;;;4.05;65.62;97063.72;5096562;28;20028;-67
2022/02/27 03:49:34;;;;;;;17.83;13.10;;;;;;;4.00;65.94;97068.91;5096412;28;20024;-66
2022/02/27 03:52:00;;;;;;;23.48;13.35;;;;;;;4.03;65.82;97075.81;5096300;28;20047;-64
2022/02/27 03:54:26;;;;;;;25.17;13.45;;;;;;;4.04;65.65;97082.72;5096244;28;20035;-67
2022/02/27 03:56:51;;;;;;;18.65;13.50;;;;;;;4.11;65.58;97096.50;5096078;28;20031;-67
2022/02/27 03:59:18;;;;;;;24.20;13.35;;;;;;;4.03;65.58;97092.22;5096223;28;20012;-66
2022/02/27 04:01:43;;;;;;;20.70;12.55;;;;;;;4.03;65.77;97097.38;5096317;28;20043;-66
2022/02/27 04:04:09;;;;;;;20.85;14.45;;;;;;;3.96;65.45;97087.03;5096168;28;20474;-66
2022/02/27 04:06:34;;;;;;;18.15;12.85;;;;;;;4.07;65.12;97094.78;5096068;28;20047;-66
2022/02/27 04:09:00;;;;;;;22.55;13.98;;;;;;;3.97;65.37;97091.38;5096081;28;20032;-66
2022/02/27 04:11:26;;;;;;;18.75;13.00;;;;;;;3.88;65.80;97080.16;5096024;28;20028;-66
2022/02/27 04:13:52;;;;;;;13.55;9.13;;;;;;;3.83;65.55;97105.22;5095943;28;20079;-66
2022/02/27 04:16:17;;;;;;;29.73;12.30;;;;;;;3.85;65.86;97087.09;5095671;28;20504;-66
2022/02/27 04:18:43;;;;;;;24.92;13.50;;;;;;;3.86;65.53;97094.00;5095889;28;20050;-66
2022/02/27 04:21:09;;;;;;;19.08;12.00;;;;;;;3.87;65.71;97100.88;5095683;28;20501;-66
2022/02/27 04:23:34;;;;;;;26.05;12.30;;;;;;;3.83;65.56;97110.41;5095759;28;20445;-66
2022/02/27 04:26:00;;;;;;;18.48;12.15;;;;;;;3.86;65.55;97125.94;5095731;28;20416;-66
2022/02/27 04:28:25;;;;;;;18.63;12.55;;;;;;;3.92;65.34;97130.22;5095886;28;20073;-66
2022/02/27 04:30:51;;;;;;;17.92;11.63;;;;;;;3.88;65.44;97121.59;5094816;28;20024;-66
2022/02/27 04:33:18;;;;;;;18.90;11.73;;;;;;;3.91;65.24;97118.13;5095251;28;20028;-66
2022/02/27 04:35:44;;;;;;;20.70;11.13;;;;;;;3.88;64.97;97125.91;5095637;28;20024;-66
2022/02/27 04:38:09;;;;;;;21.00;12.63;;;;;;;3.86;64.91;97123.34;5077364;28;20035;-66
2022/02/27 04:40:35;;;;;;;16.23;11.07;;;;;;;3.81;64.75;97121.59;5095431;28;20032;-65
2022/02/27 04:43:02;;;;;;;15.50;10.90;;;;;;;3.78;64.87;97120.75;5095251;28;20022;-66
2022/02/27 04:45:28;;;;;;;19.33;12.48;;;;;;;3.76;65.02;97112.13;5095394;28;20028;-64
2022/02/27 04:47:54;;;;;;;20.02;11.70;;;;;;;3.69;65.35;97118.16;5095260;28;20112;-64
2022/02/27 04:50:21;;;;;;;16.52;11.02;;;;;;;3.74;65.42;97131.97;5095356;28;20065;-66
2022/02/27 04:52:46;;;;;;;18.92;11.73;;;;;;;3.74;65.58;97133.69;5095323;28;20051;-67
2022/02/27 04:55:12;;;;;;;15.07;10.52;;;;;;;3.74;65.84;97131.97;5095248;28;20462;-67
2022/02/27 04:57:38;;;;;;;19.00;12.82;;;;;;;3.76;65.66;97142.31;5095101;28;20054;-66
2022/02/27 05:00:07;;;;;;;19.88;12.07;;;;;;;3.74;65.93;97131.97;5095106;28;20470;-66
2022/02/27 05:02:34;;;;;;;18.50;11.60;;;;;;;3.72;66.32;97144.06;5095117;28;20017;-67
2022/02/27 05:04:59;;;;;;;22.35;13.38;;;;;;;3.72;66.39;97140.59;5094850;28;20020;-67
2022/02/27 05:07:26;;;;;;;19.25;12.80;;;;;;;3.74;65.98;97116.44;5094894;28;20020;-65
2022/02/27 05:09:52;;;;;;;21.25;12.30;;;;;;;3.76;66.27;97132.81;5094854;28;20111;-67
2022/02/27 05:12:18;;;;;;;22.13;12.43;;;;;;;3.75;65.96;97135.41;5094869;28;20024;-66
2022/02/27 05:14:44;;;;;;;15.30;10.50;;;;;;;3.72;66.07;97138.00;5094761;28;20362;-66
2022/02/27 05:17:09;;;;;;;21.83;12.98;;;;;;;3.69;66.04;97128.53;5094482;28;20081;-67
2022/02/27 05:19:35;;;;;;;20.75;12.05;;;;;;;3.72;66.29;97130.25;5094619;28;20020;-66
2022/02/27 05:22:00;;;;;;;20.17;12.30;;;;;;;3.73;66.29;97130.25;5094382;28;20040;-66
2022/02/27 05:24:26;;;;;;;17.08;11.68;;;;;;;3.62;66.14;97130.28;5094646;28;20092;-66
2022/02/27 05:26:52;;;;;;;17.38;11.77;;;;;;;3.63;66.17;97113.88;5094728;28;20102;-66
2022/02/27 05:29:17;;;;;;;16.95;12.45;;;;;;;3.67;65.97;97113.00;5094492;28;20032;-66
2022/02/27 05:31:43;;;;;;;16.60;10.98;;;;;;;3.67;65.80;97112.13;5094588;28;20027;-66
2022/02/27 05:34:10;;;;;;;17.67;11.13;;;;;;;3.76;65.71;97109.53;5094353;28;20095;-66
2022/02/27 05:36:35;;;;;;;20.33;11.57;;;;;;;3.72;65.83;97117.28;5094238;28;20077;-66
2022/02/27 05:39:02;;;;;;;16.05;10.80;;;;;;;3.73;65.58;97114.72;5094349;28;20028;-66
2022/02/27 05:41:28;;;;;;;21.27;11.45;;;;;;;3.67;65.85;97107.81;5094342;28;20106;-66
2022/02/27 05:43:54;;;;;;;16.40;11.05;;;;;;;3.69;65.86;97106.94;5093802;28;20035;-66
2022/02/27 05:46:19;;;;;;;19.20;11.80;;;;;;;3.71;65.68;97102.66;5094138;28;20020;-66
2022/02/27 05:48:45;;;;;;;18.85;11.80;;;;;;;3.75;65.98;97101.78;5094155;28;20020;-66
2022/02/27 05:51:11;;;;;;;17.33;10.10;;;;;;;3.73;65.66;97108.69;5094102;28;20024;-67
2022/02/27 05:53:37;;;;;;;24.35;12.38;;;;;;;3.75;65.56;97105.22;5094058;28;20020;-66
2022/02/27 05:56:02;;;;;;;17.98;11.68;;;;;;;3.76;66.13;97103.47;5094133;28;20024;-66
2022/02/27 05:58:30;;;;;;;17.85;10.27;;;;;;;3.73;66.03;97103.50;5094097;28;20024;-66
2022/02/27 06:00:58;;;;;;;13.75;9.82;;;;;;;3.72;66.13;97094.00;5093925;28;20024;-66
2022/02/27 06:03:24;;;;;;;17.70;11.38;;;;;;;3.77;66.23;97094.88;5093983;28;20024;-66
2022/02/27 06:05:50;;;;;;;19.85;12.10;;;;;;;3.77;66.22;97098.31;5093871;28;20020;-66
2022/02/27 06:08:16;;;;;;;15.45;10.60;;;;;;;3.75;66.06;97106.94;5093760;28;20028;-67
2022/02/27 06:10:42;;;;;;;20.73;12.27;;;;;;;3.78;66.45;97096.59;5093894;28;20023;-66
2022/02/27 06:13:08;;;;;;;17.33;11.73;;;;;;;3.76;66.23;97096.59;5093865;28;20020;-66
2022/02/27 06:15:33;;;;;;;16.45;11.13;;;;;;;3.76;66.53;97100.91;5093700;28;20047;-66
2022/02/27 06:17:59;;;;;;;17.13;11.48;;;;;;;3.69;66.48;97101.78;5093448;28;20056;-67
2022/02/27 06:20:25;;;;;;;20.75;12.18;;;;;;;3.72;66.42;97105.22;5093324;28;20036;-66
2022/02/27 06:22:51;;;;;;;16.73;11.32;;;;;;;3.75;66.20;97112.13;5093467;28;20020;-66
2022/02/27 06:25:19;;;;;;;17.95;10.98;;;;;;;3.73;66.14;97101.78;5093538;28;20105;-66
2022/02/27 06:27:46;;;;;;;21.50;12.30;;;;;;;3.79;66.43;97100.88;5093689;28;20012;-66
2022/02/27 06:30:13;;;;;;;18.33;11.85;;;;;;;3.83;66.08;97097.44;5093425;28;20054;-66
2022/02/27 06:32:38;;;;;;;16.48;11.00;;;;;;;3.84;66.28;97093.13;5093246;28;20028;-66
2022/02/27 06:35:09;;;;;;;22.52;12.38;;;;;;;3.89;65.98;97091.41;5093572;28;20020;-66
2022/02/27 06:37:35;;;;;;;19.35;11.98;;;;;;;3.97;65.84;97087.03;5093560;28;20089;-66
2022/02/27 06:40:02;;;;;;;16.60;10.43;;;;;;;3.97;65.58;97094.81;5093482;28;20031;-66
2022/02/27 06:42:27;;;;;;;16.70;12.20;;;;;;;4.03;65.70;97099.09;5093322;28;20024;-66
2022/02/27 06:44:53;;;;;;;15.07;9.80;;;;;;;4.11;65.00;97106.84;5093332;28;20108;-66
2022/02/27 06:47:19;;;;;;;18.33;10.45;;;;;;;4.00;64.85;97117.28;5093267;28;20493;-68
2022/02/27 06:49:45;;;;;;;16.38;11.00;;;;;;;3.95;65.29;97106.03;5093290;28;20020;-66
2022/02/27 06:52:10;;;;;;;14.52;9.48;;;;;;;3.94;64.89;97112.94;5093249;28;20024;-66
2022/02/27 06:54:37;;;;;;;17.05;11.35;;;;;;;3.95;65.30;97112.09;5092460;28;20020;-66
2022/02/27 06:57:02;;;;;;;15.90;11.05;;;;;;;3.97;65.23;97101.75;5092877;28;20028;-66
2022/02/27 06:59:29;;;;;;;20.45;10.95;;;;;;;4.02;65.02;97102.56;5093073;28;20031;-66
2022/02/27 07:01:54;;;;;;;14.90;10.20;;;;;;;4.02;64.48;97106.03;5093189;28;20013;-66
2022/02/27 07:04:20;;;;;;;14.95;9.63;;;;;;;3.96;65.14;97113.81;5093016;28;20024;-66
2022/02/27 07:06:45;;;;;;;14.77;11.02;;;;;;;3.98;64.77;97109.50;5092942;28;20052;-66
2022/02/27 07:09:11;;;;;;;12.75;9.05;;;;;;;4.01;64.23;97111.22;5093089;28;20028;-66
2022/02/27 07:11:37;;;;;;;15.77;9.90;;;;;;;3.88;64.19;97113.81;5093108;28;20077;-66
2022/02/27 07:14:02;;;;;;;16.05;9.82;;;;;;;3.88;64.47;97106.06;5092991;28;20047;-66
2022/02/27 07:16:28;;;;;;;16.67;10.70;;;;;;;3.91;64.48;97107.75;5093022;28;20081;-66
2022/02/27 07:18:55;;;;;;;20.95;12.07;;;;;;;3.93;64.50;97113.81;5092892;28;20032;-66
2022/02/27 07:21:21;;;;;;;13.82;9.70;;;;;;;4.03;63.83;97117.22;5092480;28;20393;-66
2022/02/27 07:23:47;;;;;;;13.75;9.32;;;;;;;4.03;62.90;97114.63;5092958;28;20023;-66
2022/02/27 07:26:13;;;;;;;14.10;9.02;;;;;;;3.99;62.59;97103.44;5092917;28;20028;-66
2022/02/27 07:28:39;;;;;;;15.32;9.60;;;;;;;3.90;63.14;97112.09;5092833;28;20481;-66
2022/02/27 07:31:05;;;;;;;13.02;9.10;;;;;;;3.81;62.28;97101.75;5092770;28;20096;-66
2022/02/27 07:33:31;;;;;;;14.73;10.07;;;;;;;3.83;62.96;97109.53;5092878;28;20418;-66
2022/02/27 07:35:57;;;;;;;24.10;13.90;;;;;;;3.90;62.38;97104.34;5092935;28;20024;-66
2022/02/27 07:38:23;;;;;;;12.30;7.57;;;;;;;3.97;61.24;97109.50;5092743;28;20111;-66
2022/02/27 07:40:49;;;;;;;12.27;8.05;;;;;;;4.04;60.66;97101.69;5092783;28;20103;-66
2022/02/27 07:43:15;;;;;;;9.15;7.03;;;;;;;4.06;60.61;97106.03;5092589;28;20024;-67
2022/02/27 07:45:42;;;;;;;9.60;7.35;;;;;;;4.05;59.96;97092.22;5092715;28;20020;-66
2022/02/27 07:48:08;;;;;;;12.38;8.50;;;;;;;4.06;60.62;97087.91;5092654;28;20016;-66
2022/02/27 07:50:34;;;;;;;12.73;7.85;;;;;;;4.07;60.18;97080.13;5092758;28;20017;-67
2022/02/27 07:53:00;;;;;;;11.40;8.05;;;;;;;4.08;60.71;97081.84;5092610;28;20089;-66
2022/02/27 07:55:27;;;;;;;10.85;7.60;;;;;;;4.12;60.07;97080.13;5092514;28;20052;-66
2022/02/27 07:57:52;;;;;;;7.90;6.43;;;;;;;4.07;59.60;97081.84;5074398;28;20028;-66
2022/02/27 08:00:21;;;;;;;8.60;6.35;;;;;;;4.16;58.19;97087.00;5092482;28;20031;-66
2022/02/27 08:02:47;;;;;;;7.45;5.90;;;;;;;4.15;58.39;97078.34;5092495;28;20470;-66
2022/02/27 08:05:13;;;;;;;10.85;5.95;;;;;;;4.18;57.98;97077.47;5092773;28;20030;-66
2022/02/27 08:07:39;;;;;;;10.82;6.57;;;;;;;4.26;57.90;97080.03;5095960;28;20359;-66
2022/02/27 08:10:05;;;;;;;10.18;6.60;;;;;;;4.18;57.92;97080.06;5096002;28;20024;-66
2022/02/27 08:12:32;;;;;;;9.80;5.93;;;;;;;4.20;57.80;97072.28;5096094;28;20441;-66
2022/02/27 08:14:58;;;;;;;8.13;6.30;;;;;;;4.24;57.18;97067.09;5096069;28;20030;-66
2022/02/27 08:17:24;;;;;;;8.95;6.07;;;;;;;4.21;57.71;97067.09;5077965;28;20103;-66
2022/02/27 08:19:49;;;;;;;10.07;6.80;;;;;;;4.25;57.59;97071.41;5095556;28;20024;-66
2022/02/27 08:22:16;;;;;;;12.88;6.63;;;;;;;4.30;57.28;97073.97;5095893;28;20039;-66
2022/02/27 08:24:42;;;;;;;10.32;5.82;;;;;;;4.35;57.48;97061.00;5095827;28;20024;-66
2022/02/27 08:27:08;;;;;;;9.50;5.88;;;;;;;4.36;57.94;97071.38;5095845;28;20123;-66
2022/02/27 08:29:34;;;;;;;8.93;6.00;;;;;;;4.38;57.48;97058.41;5095839;28;20081;-66
2022/02/27 08:31:59;;;;;;;10.43;6.78;;;;;;;4.34;57.35;97057.56;5095603;28;20028;-66
2022/02/27 08:34:27;;;;;;;10.20;6.63;;;;;;;4.30;57.52;97041.16;5095628;28;20020;-66
2022/02/27 08:36:55;;;;;;;10.13;6.35;;;;;;;4.30;57.61;97043.75;5095402;28;20028;-66
2022/02/27 08:39:20;;;;;;;12.00;6.78;;;;;;;4.27;57.95;97048.09;5095632;28;20489;-67
2022/02/27 08:41:46;;;;;;;12.95;7.10;;;;;;;4.27;57.93;97037.72;5095690;28;20031;-66
2022/02/27 08:44:12;;;;;;;9.60;6.57;;;;;;;4.20;58.05;97043.81;5095539;28;20028;-66
2022/02/27 08:46:39;;;;;;;9.82;7.15;;;;;;;4.24;58.15;97050.72;5095408;28;20015;-66
2022/02/27 08:49:08;;;;;;;13.45;7.15;;;;;;;4.24;58.29;97054.16;5095388;28;20110;-67
2022/02/27 08:51:35;;;;;;;10.25;7.35;;;;;;;4.18;58.54;97038.63;5095308;28;20107;-66
2022/02/27 08:54:02;;;;;;;11.77;8.70;;;;;;;4.20;58.53;97047.28;5095125;28;20070;-66
2022/02/27 08:56:28;;;;;;;11.25;7.03;;;;;;;4.25;59.01;97042.91;5094960;28;20020;-66
2022/02/27 08:58:54;;;;;;;13.98;8.65;;;;;;;4.23;58.52;97046.38;5095168;28;20020;-67
2022/02/27 09:01:20;;;;;;;11.48;7.32;;;;;;;4.18;58.73;97043.81;5095080;28;20516;-66
2022/02/27 09:03:46;;;;;;;11.70;7.60;;;;;;;4.17;59.34;97036.91;5095125;28;20369;-66
2022/02/27 09:06:12;;;;;;;14.30;7.53;;;;;;;4.14;59.47;97044.69;5095046;28;20019;-66
2022/02/27 09:08:41;;;;;;;14.00;7.25;;;;;;;4.19;59.16;97049.88;5094997;28;20051;-66
2022/02/27 09:11:07;;;;;;;13.50;7.93;;;;;;;4.20;59.18;97036.03;5094819;28;20473;-66
2022/02/27 09:13:33;;;;;;;10.77;6.90;;;;;;;4.16;59.17;97037.78;5094862;28;20027;-66
2022/02/27 09:15:59;;;;;;;14.88;7.50;;;;;;;4.14;59.17;97040.38;5094855;28;20020;-66
2022/02/27 09:18:24;;;;;;;16.15;8.30;;;;;;;4.22;59.02;97029.13;5093964;28;20042;-66
2022/02/27 09:20:50;;;;;;;11.73;6.90;;;;;;;4.28;59.40;97037.72;5094653;28;20075;-66
2022/02/27 09:23:16;;;;;;;11.52;7.25;;;;;;;4.33;59.22;97042.88;5094583;28;20078;-66
2022/02/27 09:25:43;;;;;;;11.73;7.32;;;;;;;4.34;59.00;97026.50;5094762;28;20103;-66
2022/02/27 09:28:08;;;;;;;10.50;7.40;;;;;;;4.36;59.09;97021.31;5094636;28;20020;-66
2022/02/27 09:30:35;;;;;;;11.68;7.80;;;;;;;4.41;59.58;97009.16;5094483;28;20024;-66
2022/02/27 09:33:01;;;;;;;14.38;7.78;;;;;;;4.44;59.01;97016.94;5094447;28;20047;-66
2022/02/27 09:35:28;;;;;;;13.63;8.20;;;;;;;4.37;58.94;97016.09;5094416;28;20486;-67
2022/02/27 09:37:56;;;;;;;11.98;7.07;;;;;;;4.34;59.35;97018.72;5094437;28;20549;-66
2022/02/27 09:40:23;;;;;;;12.40;7.55;;;;;;;4.37;59.28;97004.88;5094332;28;20496;-66
2022/02/27 09:42:50;;;;;;;12.50;7.50;;;;;;;4.41;59.63;97010.03;5094228;28;20047;-66
2022/02/27 09:45:15;;;;;;;11.98;7.28;;;;;;;4.44;59.94;96996.19;5094211;28;20404;-66
2022/02/27 09:47:42;;;;;;;10.98;7.20;;;;;;;4.38;60.29;97014.38;5076052;28;20024;-67
2022/02/27 09:50:08;;;;;;;12.90;7.97;;;;;;;4.26;61.65;97007.53;5093985;28;20024;-66
2022/02/27 09:52:34;;;;;;;14.48;7.88;;;;;;;4.24;62.01;97014.47;5094202;28;20473;-66
2022/02/27 09:54:59;;;;;;;11.00;6.72;;;;;;;4.15;62.45;97011.03;5094225;28;20035;-66
2022/02/27 09:57:26;;;;;;;17.40;9.35;;;;;;;4.09;63.03;96994.66;5093951;28;20071;-66
2022/02/27 09:59:53;;;;;;;16.13;8.23;;;;;;;4.23;63.28;97007.53;5093979;28;20027;-66
2022/02/27 10:02:19;;;;;;;16.52;9.00;;;;;;;4.28;63.88;97013.56;5093911;28;20382;-67
2022/02/27 10:04:48;;;;;;;14.85;9.25;;;;;;;4.16;64.26;97004.97;5094019;28;20028;-67
2022/02/27 10:07:19;;;;;;;14.45;8.90;;;;;;;4.12;64.60;96997.25;5093971;28;20016;-66
2022/02/27 10:09:46;;;;;;;13.98;8.63;;;;;;;4.05;65.25;96983.47;5093776;28;20023;-66
2022/02/27 10:12:25;;;;;;;16.15;8.13;;;;;;;4.09;65.02;96979.97;5093751;28;20016;-67
2022/02/27 10:14:59;;;;;;;16.33;8.07;;;;;;;4.14;65.29;97001.53;5093691;28;20377;-66
2022/02/27 10:17:38;;;;;;;14.63;8.70;;;;;;;4.10;65.25;96954.94;5093661;28;20032;-67
2022/02/27 10:20:08;;;;;;;17.13;9.50;;;;;;;4.13;65.19;96958.38;5093407;28;20056;-66
2022/02/27 10:22:36;;;;;;;15.43;8.63;;;;;;;4.08;64.86;96978.25;5093660;28;20105;-66
2022/02/27 10:25:08;;;;;;;17.02;9.25;;;;;;;4.05;65.01;96962.75;5093627;28;20031;-66
2022/02/27 10:27:40;;;;;;;19.25;9.02;;;;;;;4.01;65.00;96958.47;5093557;28;20040;-67
2022/02/27 10:30:22;;;;;;;17.73;9.63;;;;;;;3.96;65.23;96962.78;5092600;28;20028;-66
2022/02/27 10:32:59;;;;;;;20.48;9.75;;;;;;;4.02;65.04;96944.63;5093639;28;20028;-66
2022/02/27 10:35:37;;;;;;;12.30;7.93;;;;;;;4.03;65.23;96943.75;5093521;28;20082;-65
2022/02/27 10:38:04;;;;;;;13.52;8.65;;;;;;;4.10;64.29;96939.41;5093301;28;20024;-66
2022/02/27 10:40:38;;;;;;;16.25;8.95;;;;;;;4.13;64.66;96935.06;5093168;28;20477;-66
2022/02/27 10:43:09;;;;;;;13.30;8.70;;;;;;;4.24;63.97;96940.19;5093272;28;20488;-67
2022/02/27 10:45:35;;;;;;;14.88;8.48;;;;;;;4.26;62.98;96930.69;5093321;28;20032;-66
2022/02/27 10:48:07;;;;;;;15.02;8.18;;;;;;;4.27;62.33;96919.44;5093175;28;20020;-66
2022/02/27 10:50:34;;;;;;;11.35;8.10;;;;;;;4.27;62.40;96914.28;5093312;28;20035;-66
2022/02/27 10:53:01;;;;;;;13.35;7.90;;;;;;;4.30;62.44;96908.19;5093111;28;20070;-66
2022/02/27 10:55:27;;;;;;;17.67;8.93;;;;;;;4.36;62.26;96918.53;5093139;28;20032;-66
2022/02/27 10:57:54;;;;;;;15.57;8.25;;;;;;;4.41;62.23;96908.13;5093131;28;20536;-67
2022/02/27 11:00:29;;;;;;;15.10;8.30;;;;;;;4.36;62.32;96915.94;5093247;28;20024;-66
2022/02/27 11:03:10;;;;;;;10.30;7.20;;;;;;;4.35;62.60;96921.13;5093074;28;20032;-67
2022/02/27 11:05:38;;;;;;;17.25;9.00;;;;;;;4.26;62.57;96917.75;5093147;28;20028;-66
2022/02/27 11:08:07;;;;;;;14.45;9.02;;;;;;;4.24;62.73;96898.75;5092960;28;20034;-65
2022/02/27 11:10:35;;;;;;;13.35;8.70;;;;;;;4.27;62.42;96901.31;5093176;28;20028;-66
2022/02/27 11:13:04;;;;;;;13.60;8.18;;;;;;;4.35;62.45;96887.44;5092839;28;20481;-67
2022/02/27 11:15:30;;;;;;;13.80;7.65;;;;;;;4.43;61.91;96893.44;5092922;28;20027;-67
2022/02/27 11:17:56;;;;;;;8.25;6.18;;;;;;;4.43;61.46;96883.09;5092973;28;20055;-67
2022/02/27 11:20:24;;;;;;;12.27;7.30;;;;;;;4.50;60.96;96881.28;5092783;28;20444;-67
2022/02/27 11:22:50;;;;;;;10.93;7.15;;;;;;;4.51;60.69;96876.09;5074846;28;20028;-66
2022/02/27 11:25:18;;;;;;;12.88;6.85;;;;;;;4.51;60.55;96865.72;5092973;28;20097;-66